Alpine, Utah
Current Conditions -  °F | °C
As of 11:58 AM on Tuesday 21 Oct 2014 (Local Time) from KPVU Reporting Station
Scattered Clouds Scattered Clouds  
Wind Chill: 22°   Ceiling: Unl
Heat Index: 22°   Visibility: 10mi
Dew Point:   Wind: 9mph
Humidity: 38%   Direction: 200°SSW
Pressure: 29.95"   Gusts: NA
Location:  40.45°N, 111.78°W
Report Text: KPVU 211758Z 20008KT 10SM SCT070 22/07 A2995
Loading
Personal Weather Stations






























Interactive Weather Map New forecast layout! Learn more

10-Day Weather Forecast

Advertisements
Track Severe Weather on mobile